sensor_id;sensor_type;location;lat;lon;timestamp;temperature;humidity
78541;SHT31;67835;51.968;5.646;2023-06-14T00:00:07;21.7;35.2
78541;SHT31;67835;51.968;5.646;2023-06-14T00:02:38;21.7;35.1
78541;SHT31;67835;51.968;5.646;2023-06-14T00:05:08;21.7;35.4
78541;SHT31;67835;51.968;5.646;2023-06-14T00:07:40;21.6;35.3
78541;SHT31;67835;51.968;5.646;2023-06-14T00:10:12;21.6;35.2
78541;SHT31;67835;51.968;5.646;2023-06-14T00:12:41;21.6;35.4
78541;SHT31;67835;51.968;5.646;2023-06-14T00:15:10;21.6;35.5
78541;SHT31;67835;51.968;5.646;2023-06-14T00:17:39;21.6;35.6
78541;SHT31;67835;51.968;5.646;2023-06-14T00:20:08;21.5;35.7
78541;SHT31;67835;51.968;5.646;2023-06-14T00:22:37;21.5;35.9
78541;SHT31;67835;51.968;5.646;2023-06-14T00:25:07;21.5;35.7
78541;SHT31;67835;51.968;5.646;2023-06-14T00:27:36;21.5;35.7
78541;SHT31;67835;51.968;5.646;2023-06-14T00:30:05;21.5;36.1
78541;SHT31;67835;51.968;5.646;2023-06-14T00:32:34;21.5;35.9
78541;SHT31;67835;51.968;5.646;2023-06-14T00:35:03;21.4;35.9
78541;SHT31;67835;51.968;5.646;2023-06-14T00:37:34;21.4;35.9
78541;SHT31;67835;51.968;5.646;2023-06-14T00:40:03;21.4;36.0
78541;SHT31;67835;51.968;5.646;2023-06-14T00:42:33;21.4;36.2
78541;SHT31;67835;51.968;5.646;2023-06-14T00:45:02;21.3;36.3
78541;SHT31;67835;51.968;5.646;2023-06-14T00:47:31;21.3;36.3
78541;SHT31;67835;51.968;5.646;2023-06-14T00:50:00;21.3;36.4
78541;SHT31;67835;51.968;5.646;2023-06-14T00:52:30;21.3;36.5
78541;SHT31;67835;51.968;5.646;2023-06-14T00:54:58;21.2;36.9
78541;SHT31;67835;51.968;5.646;2023-06-14T00:57:27;21.2;36.7
78541;SHT31;67835;51.968;5.646;2023-06-14T00:59:56;21.2;36.8
78541;SHT31;67835;51.968;5.646;2023-06-14T01:02:25;21.2;37.1
78541;SHT31;67835;51.968;5.646;2023-06-14T01:04:54;21.1;36.8
78541;SHT31;67835;51.968;5.646;2023-06-14T01:07:33;21.1;37.1
78541;SHT31;67835;51.968;5.646;2023-06-14T01:10:19;21.1;37.1
78541;SHT31;67835;51.968;5.646;2023-06-14T01:12:55;21.0;37.3
78541;SHT31;67835;51.968;5.646;2023-06-14T01:15:28;21.0;37.2
78541;SHT31;67835;51.968;5.646;2023-06-14T01:17:58;21.0;37.5
78541;SHT31;67835;51.968;5.646;2023-06-14T01:20:31;21.0;37.3
78541;SHT31;67835;51.968;5.646;2023-06-14T01:23:03;20.9;37.6
78541;SHT31;67835;51.968;5.646;2023-06-14T01:25:34;20.9;37.5
78541;SHT31;67835;51.968;5.646;2023-06-14T01:28:06;20.9;37.7
78541;SHT31;67835;51.968;5.646;2023-06-14T01:30:39;20.8;37.8
78541;SHT31;67835;51.968;5.646;2023-06-14T01:33:12;20.8;37.9
78541;SHT31;67835;51.968;5.646;2023-06-14T01:35:43;20.8;38.1
78541;SHT31;67835;51.968;5.646;2023-06-14T01:38:14;20.7;38.3
78541;SHT31;67835;51.968;5.646;2023-06-14T01:40:45;20.7;38.0
78541;SHT31;67835;51.968;5.646;2023-06-14T01:43:15;20.7;38.3
78541;SHT31;67835;51.968;5.646;2023-06-14T01:45:46;20.6;38.1
78541;SHT31;67835;51.968;5.646;2023-06-14T01:48:15;20.6;38.5
78541;SHT31;67835;51.968;5.646;2023-06-14T01:50:44;20.6;38.5
78541;SHT31;67835;51.968;5.646;2023-06-14T01:53:13;20.5;38.4
78541;SHT31;67835;51.968;5.646;2023-06-14T01:55:42;20.5;38.6
78541;SHT31;67835;51.968;5.646;2023-06-14T01:58:15;20.5;39.0
78541;SHT31;67835;51.968;5.646;2023-06-14T02:00:45;20.4;39.0
78541;SHT31;67835;51.968;5.646;2023-06-14T02:03:14;20.4;38.8
78541;SHT31;67835;51.968;5.646;2023-06-14T02:05:42;20.4;39.0
78541;SHT31;67835;51.968;5.646;2023-06-14T02:08:11;20.3;39.0
78541;SHT31;67835;51.968;5.646;2023-06-14T02:10:40;20.3;39.2
78541;SHT31;67835;51.968;5.646;2023-06-14T02:13:08;20.3;39.2
78541;SHT31;67835;51.968;5.646;2023-06-14T02:15:36;20.2;39.4
78541;SHT31;67835;51.968;5.646;2023-06-14T02:18:05;20.2;39.5
78541;SHT31;67835;51.968;5.646;2023-06-14T02:20:34;20.1;39.4
78541;SHT31;67835;51.968;5.646;2023-06-14T02:23:02;20.1;39.6
78541;SHT31;67835;51.968;5.646;2023-06-14T02:25:31;20.1;39.6
78541;SHT31;67835;51.968;5.646;2023-06-14T02:28:01;20.0;39.6
78541;SHT31;67835;51.968;5.646;2023-06-14T02:30:30;20.0;39.9
78541;SHT31;67835;51.968;5.646;2023-06-14T02:32:59;20.0;40.0
78541;SHT31;67835;51.968;5.646;2023-06-14T02:35:30;19.9;39.9
78541;SHT31;67835;51.968;5.646;2023-06-14T02:37:59;19.9;40.2
78541;SHT31;67835;51.968;5.646;2023-06-14T02:40:27;19.9;40.0
78541;SHT31;67835;51.968;5.646;2023-06-14T02:42:56;19.9;40.3
78541;SHT31;67835;51.968;5.646;2023-06-14T02:45:24;19.8;40.3
78541;SHT31;67835;51.968;5.646;2023-06-14T02:47:53;19.8;40.6
78541;SHT31;67835;51.968;5.646;2023-06-14T02:50:22;19.8;40.4
78541;SHT31;67835;51.968;5.646;2023-06-14T02:52:50;19.7;40.5
78541;SHT31;67835;51.968;5.646;2023-06-14T02:55:19;19.7;40.7
78541;SHT31;67835;51.968;5.646;2023-06-14T02:57:47;19.7;40.9
78541;SHT31;67835;51.968;5.646;2023-06-14T03:00:17;19.6;40.7
78541;SHT31;67835;51.968;5.646;2023-06-14T03:02:46;19.6;40.9
78541;SHT31;67835;51.968;5.646;2023-06-14T03:05:17;19.6;40.9
78541;SHT31;67835;51.968;5.646;2023-06-14T03:07:47;19.5;41.2
78541;SHT31;67835;51.968;5.646;2023-06-14T03:10:16;19.5;41.1
78541;SHT31;67835;51.968;5.646;2023-06-14T03:12:45;19.5;41.3
78541;SHT31;67835;51.968;5.646;2023-06-14T03:15:14;19.5;41.2
78541;SHT31;67835;51.968;5.646;2023-06-14T03:17:44;19.4;41.4
78541;SHT31;67835;51.968;5.646;2023-06-14T03:20:15;19.4;41.5
78541;SHT31;67835;51.968;5.646;2023-06-14T03:22:47;19.4;41.5
78541;SHT31;67835;51.968;5.646;2023-06-14T03:25:16;19.3;41.6
78541;SHT31;67835;51.968;5.646;2023-06-14T03:27:45;19.3;41.7
78541;SHT31;67835;51.968;5.646;2023-06-14T03:30:14;19.3;41.8
78541;SHT31;67835;51.968;5.646;2023-06-14T03:32:43;19.2;42.0
78541;SHT31;67835;51.968;5.646;2023-06-14T03:35:11;19.2;41.9
78541;SHT31;67835;51.968;5.646;2023-06-14T03:37:43;19.2;41.9
78541;SHT31;67835;51.968;5.646;2023-06-14T03:40:14;19.2;42.2
78541;SHT31;67835;51.968;5.646;2023-06-14T03:42:43;19.2;42.5
78541;SHT31;67835;51.968;5.646;2023-06-14T03:45:12;19.1;42.3
78541;SHT31;67835;51.968;5.646;2023-06-14T03:47:40;19.1;42.5
78541;SHT31;67835;51.968;5.646;2023-06-14T03:50:10;19.1;42.4
78541;SHT31;67835;51.968;5.646;2023-06-14T03:52:39;19.1;42.5
78541;SHT31;67835;51.968;5.646;2023-06-14T03:55:09;19.1;42.8
78541;SHT31;67835;51.968;5.646;2023-06-14T03:57:39;19.1;42.7
78541;SHT31;67835;51.968;5.646;2023-06-14T04:00:09;19.1;42.8
78541;SHT31;67835;51.968;5.646;2023-06-14T04:02:39;19.1;42.9
78541;SHT31;67835;51.968;5.646;2023-06-14T04:05:08;19.0;43.1
78541;SHT31;67835;51.968;5.646;2023-06-14T04:07:39;19.0;43.2
78541;SHT31;67835;51.968;5.646;2023-06-14T04:10:12;19.0;43.1
78541;SHT31;67835;51.968;5.646;2023-06-14T04:12:41;19.0;43.0
78541;SHT31;67835;51.968;5.646;2023-06-14T04:15:11;19.0;43.0
78541;SHT31;67835;51.968;5.646;2023-06-14T04:17:40;19.0;43.1
78541;SHT31;67835;51.968;5.646;2023-06-14T04:20:10;19.0;43.4
78541;SHT31;67835;51.968;5.646;2023-06-14T04:22:39;19.0;43.2
78541;SHT31;67835;51.968;5.646;2023-06-14T04:25:11;19.0;43.4
78541;SHT31;67835;51.968;5.646;2023-06-14T04:27:41;19.0;43.2
78541;SHT31;67835;51.968;5.646;2023-06-14T04:30:11;19.0;43.5
78541;SHT31;67835;51.968;5.646;2023-06-14T04:32:40;19.0;43.3
78541;SHT31;67835;51.968;5.646;2023-06-14T04:35:09;19.0;43.2
78541;SHT31;67835;51.968;5.646;2023-06-14T04:37:39;19.1;43.3
78541;SHT31;67835;51.968;5.646;2023-06-14T04:40:10;19.1;43.2
78541;SHT31;67835;51.968;5.646;2023-06-14T04:42:39;19.1;43.3
78541;SHT31;67835;51.968;5.646;2023-06-14T04:45:12;19.1;43.5
78541;SHT31;67835;51.968;5.646;2023-06-14T04:47:42;19.1;43.7
78541;SHT31;67835;51.968;5.646;2023-06-14T04:50:11;19.1;43.5
78541;SHT31;67835;51.968;5.646;2023-06-14T04:52:40;19.1;43.9
78541;SHT31;67835;51.968;5.646;2023-06-14T04:55:09;19.2;43.6
78541;SHT31;67835;51.968;5.646;2023-06-14T04:57:38;19.2;43.7
78541;SHT31;67835;51.968;5.646;2023-06-14T05:00:10;19.2;43.3
78541;SHT31;67835;51.968;5.646;2023-06-14T05:02:40;19.2;43.5
78541;SHT31;67835;51.968;5.646;2023-06-14T05:05:09;19.3;43.5
78541;SHT31;67835;51.968;5.646;2023-06-14T05:07:39;19.3;43.3
78541;SHT31;67835;51.968;5.646;2023-06-14T05:10:08;19.3;43.6
78541;SHT31;67835;51.968;5.646;2023-06-14T05:12:38;19.4;43.3
78541;SHT31;67835;51.968;5.646;2023-06-14T05:15:10;19.4;43.6
78541;SHT31;67835;51.968;5.646;2023-06-14T05:17:39;19.5;43.5
78541;SHT31;67835;51.968;5.646;2023-06-14T05:20:09;19.5;43.2
78541;SHT31;67835;51.968;5.646;2023-06-14T05:22:39;19.5;43.2
78541;SHT31;67835;51.968;5.646;2023-06-14T05:25:08;19.6;43.5
78541;SHT31;67835;51.968;5.646;2023-06-14T05:27:36;19.6;43.2
78541;SHT31;67835;51.968;5.646;2023-06-14T05:30:12;19.7;43.2
78541;SHT31;67835;51.968;5.646;2023-06-14T05:32:41;19.8;43.0
78541;SHT31;67835;51.968;5.646;2023-06-14T05:35:10;19.8;43.2
78541;SHT31;67835;51.968;5.646;2023-06-14T05:37:39;19.9;43.1
78541;SHT31;67835;51.968;5.646;2023-06-14T05:40:08;19.9;42.6
78541;SHT31;67835;51.968;5.646;2023-06-14T05:42:37;20.0;42.9
78541;SHT31;67835;51.968;5.646;2023-06-14T05:45:09;20.0;42.8
78541;SHT31;67835;51.968;5.646;2023-06-14T05:47:38;20.1;42.7
78541;SHT31;67835;51.968;5.646;2023-06-14T05:50:07;20.2;42.1
78541;SHT31;67835;51.968;5.646;2023-06-14T05:52:36;20.3;42.7
78541;SHT31;67835;51.968;5.646;2023-06-14T05:55:06;20.3;42.1
78541;SHT31;67835;51.968;5.646;2023-06-14T05:57:34;20.4;42.1
78541;SHT31;67835;51.968;5.646;2023-06-14T06:00:04;20.5;41.7
78541;SHT31;67835;51.968;5.646;2023-06-14T06:02:41;20.6;41.8
78541;SHT31;67835;51.968;5.646;2023-06-14T06:05:10;20.7;41.1
78541;SHT31;67835;51.968;5.646;2023-06-14T06:07:39;20.8;40.5
78541;SHT31;67835;51.968;5.646;2023-06-14T06:10:13;20.9;40.7
78541;SHT31;67835;51.968;5.646;2023-06-14T06:12:44;21.1;41.0
78541;SHT31;67835;51.968;5.646;2023-06-14T06:15:14;21.2;40.5
78541;SHT31;67835;51.968;5.646;2023-06-14T06:17:43;21.3;40.9
78541;SHT31;67835;51.968;5.646;2023-06-14T06:20:14;21.4;39.6
78541;SHT31;67835;51.968;5.646;2023-06-14T06:22:43;21.5;39.0
78541;SHT31;67835;51.968;5.646;2023-06-14T06:25:12;21.7;39.3
78541;SHT31;67835;51.968;5.646;2023-06-14T06:27:41;21.8;38.8
78541;SHT31;67835;51.968;5.646;2023-06-14T06:30:11;21.9;38.7
78541;SHT31;67835;51.968;5.646;2023-06-14T06:32:41;22.0;38.7
78541;SHT31;67835;51.968;5.646;2023-06-14T06:35:10;22.1;39.4
78541;SHT31;67835;51.968;5.646;2023-06-14T06:37:40;22.2;39.8
78541;SHT31;67835;51.968;5.646;2023-06-14T06:40:10;22.3;38.3
78541;SHT31;67835;51.968;5.646;2023-06-14T06:42:39;22.5;39.0
78541;SHT31;67835;51.968;5.646;2023-06-14T06:45:11;22.7;37.7
78541;SHT31;67835;51.968;5.646;2023-06-14T06:47:39;22.9;37.1
78541;SHT31;67835;51.968;5.646;2023-06-14T06:50:08;23.2;37.7
78541;SHT31;67835;51.968;5.646;2023-06-14T06:52:37;23.5;36.8
78541;SHT31;67835;51.968;5.646;2023-06-14T06:55:07;23.9;36.7
78541;SHT31;67835;51.968;5.646;2023-06-14T06:57:37;24.3;36.5
78541;SHT31;67835;51.968;5.646;2023-06-14T07:00:07;24.7;35.7
78541;SHT31;67835;51.968;5.646;2023-06-14T07:02:39;25.3;33.2
78541;SHT31;67835;51.968;5.646;2023-06-14T07:05:08;25.7;32.5
78541;SHT31;67835;51.968;5.646;2023-06-14T07:07:36;26.0;32.1
78541;SHT31;67835;51.968;5.646;2023-06-14T07:10:06;26.3;31.1
78541;SHT31;67835;51.968;5.646;2023-06-14T07:12:35;26.5;31.5
78541;SHT31;67835;51.968;5.646;2023-06-14T07:15:07;26.7;31.1
78541;SHT31;67835;51.968;5.646;2023-06-14T07:17:36;26.9;31.2
78541;SHT31;67835;51.968;5.646;2023-06-14T07:20:05;27.0;30.5
78541;SHT31;67835;51.968;5.646;2023-06-14T07:22:41;27.2;30.5
78541;SHT31;67835;51.968;5.646;2023-06-14T07:25:11;27.5;30.2
78541;SHT31;67835;51.968;5.646;2023-06-14T07:27:42;27.7;29.8
78541;SHT31;67835;51.968;5.646;2023-06-14T07:30:14;28.0;29.4
78541;SHT31;67835;51.968;5.646;2023-06-14T07:32:43;28.3;28.7
78541;SHT31;67835;51.968;5.646;2023-06-14T07:35:13;28.5;28.7
78541;SHT31;67835;51.968;5.646;2023-06-14T07:37:41;28.7;28.7
78541;SHT31;67835;51.968;5.646;2023-06-14T07:40:11;28.9;28.1
78541;SHT31;67835;51.968;5.646;2023-06-14T07:42:40;29.0;28.2
78541;SHT31;67835;51.968;5.646;2023-06-14T07:45:09;29.2;27.9
78541;SHT31;67835;51.968;5.646;2023-06-14T07:47:40;29.4;27.4
78541;SHT31;67835;51.968;5.646;2023-06-14T07:50:11;29.6;26.9
78541;SHT31;67835;51.968;5.646;2023-06-14T07:52:40;29.8;26.2
78541;SHT31;67835;51.968;5.646;2023-06-14T07:55:09;29.9;26.6
78541;SHT31;67835;51.968;5.646;2023-06-14T07:57:37;30.0;26.2
78541;SHT31;67835;51.968;5.646;2023-06-14T08:00:10;30.2;25.8
78541;SHT31;67835;51.968;5.646;2023-06-14T08:02:41;30.3;25.5
78541;SHT31;67835;51.968;5.646;2023-06-14T08:05:12;30.5;25.4
78541;SHT31;67835;51.968;5.646;2023-06-14T08:07:41;30.6;25.6
78541;SHT31;67835;51.968;5.646;2023-06-14T08:10:10;30.8;24.7
78541;SHT31;67835;51.968;5.646;2023-06-14T08:12:40;31.0;24.4
78541;SHT31;67835;51.968;5.646;2023-06-14T08:15:10;31.1;24.9
78541;SHT31;67835;51.968;5.646;2023-06-14T08:17:38;31.2;24.1
78541;SHT31;67835;51.968;5.646;2023-06-14T08:20:07;31.4;23.8
78541;SHT31;67835;51.968;5.646;2023-06-14T08:22:37;31.5;23.7
78541;SHT31;67835;51.968;5.646;2023-06-14T08:25:09;31.7;22.7
78541;SHT31;67835;51.968;5.646;2023-06-14T08:27:38;31.8;24.0
78541;SHT31;67835;51.968;5.646;2023-06-14T08:30:09;32.0;22.9
78541;SHT31;67835;51.968;5.646;2023-06-14T08:32:37;32.2;23.5
78541;SHT31;67835;51.968;5.646;2023-06-14T08:35:07;32.5;23.6
78541;SHT31;67835;51.968;5.646;2023-06-14T08:37:38;32.7;22.5
78541;SHT31;67835;51.968;5.646;2023-06-14T08:40:19;33.0;21.6
78541;SHT31;67835;51.968;5.646;2023-06-14T08:42:53;33.2;21.8
78541;SHT31;67835;51.968;5.646;2023-06-14T08:45:23;33.4;21.4
78541;SHT31;67835;51.968;5.646;2023-06-14T08:47:53;33.6;21.9
78541;SHT31;67835;51.968;5.646;2023-06-14T08:50:25;33.7;21.4
78541;SHT31;67835;51.968;5.646;2023-06-14T08:52:57;33.9;21.4
78541;SHT31;67835;51.968;5.646;2023-06-14T08:55:30;34.2;21.3
78541;SHT31;67835;51.968;5.646;2023-06-14T08:57:59;34.5;21.5
78541;SHT31;67835;51.968;5.646;2023-06-14T09:00:29;34.7;21.4
78541;SHT31;67835;51.968;5.646;2023-06-14T09:02:59;35.0;19.1
78541;SHT31;67835;51.968;5.646;2023-06-14T09:05:27;35.3;19.3
78541;SHT31;67835;51.968;5.646;2023-06-14T09:07:56;35.5;19.6
78541;SHT31;67835;51.968;5.646;2023-06-14T09:10:27;35.7;18.2
78541;SHT31;67835;51.968;5.646;2023-06-14T09:12:57;35.9;18.2
78541;SHT31;67835;51.968;5.646;2023-06-14T09:15:26;36.0;18.6
78541;SHT31;67835;51.968;5.646;2023-06-14T09:17:54;36.1;18.2
78541;SHT31;67835;51.968;5.646;2023-06-14T09:20:24;36.1;18.5
78541;SHT31;67835;51.968;5.646;2023-06-14T09:22:53;36.2;18.1
78541;SHT31;67835;51.968;5.646;2023-06-14T09:25:22;36.3;18.0
78541;SHT31;67835;51.968;5.646;2023-06-14T09:27:51;36.4;18.3
78541;SHT31;67835;51.968;5.646;2023-06-14T09:30:20;36.5;18.0
78541;SHT31;67835;51.968;5.646;2023-06-14T09:32:52;36.5;18.6
78541;SHT31;67835;51.968;5.646;2023-06-14T09:35:21;36.6;18.3
78541;SHT31;67835;51.968;5.646;2023-06-14T09:37:50;36.8;17.8
78541;SHT31;67835;51.968;5.646;2023-06-14T09:40:24;37.0;18.1
78541;SHT31;67835;51.968;5.646;2023-06-14T09:42:53;37.2;18.3
78541;SHT31;67835;51.968;5.646;2023-06-14T09:45:24;37.5;18.1
78541;SHT31;67835;51.968;5.646;2023-06-14T09:47:56;37.7;17.4
78541;SHT31;67835;51.968;5.646;2023-06-14T09:50:25;38.0;17.0
78541;SHT31;67835;51.968;5.646;2023-06-14T09:53:00;38.2;17.7
78541;SHT31;67835;51.968;5.646;2023-06-14T09:55:31;38.3;17.3
78541;SHT31;67835;51.968;5.646;2023-06-14T09:58:05;38.6;16.9
78541;SHT31;67835;51.968;5.646;2023-06-14T10:00:36;38.7;15.7
78541;SHT31;67835;51.968;5.646;2023-06-14T10:03:10;38.8;15.6
78541;SHT31;67835;51.968;5.646;2023-06-14T10:05:43;38.9;16.8
78541;SHT31;67835;51.968;5.646;2023-06-14T10:08:14;39.0;16.2
78541;SHT31;67835;51.968;5.646;2023-06-14T10:10:45;39.1;16.4
78541;SHT31;67835;51.968;5.646;2023-06-14T10:13:14;39.2;16.6
78541;SHT31;67835;51.968;5.646;2023-06-14T10:15:55;39.3;16.0
78541;SHT31;67835;51.968;5.646;2023-06-14T10:18:36;39.5;15.6
78541;SHT31;67835;51.968;5.646;2023-06-14T10:21:16;39.5;15.8
78541;SHT31;67835;51.968;5.646;2023-06-14T10:23:47;39.6;15.9
78541;SHT31;67835;51.968;5.646;2023-06-14T10:26:22;39.6;15.8
78541;SHT31;67835;51.968;5.646;2023-06-14T10:29:00;39.6;16.0
78541;SHT31;67835;51.968;5.646;2023-06-14T10:31:43;39.6;16.7
78541;SHT31;67835;51.968;5.646;2023-06-14T10:34:22;39.7;16.2
78541;SHT31;67835;51.968;5.646;2023-06-14T10:37:03;39.8;15.9
78541;SHT31;67835;51.968;5.646;2023-06-14T10:39:38;39.9;16.0
78541;SHT31;67835;51.968;5.646;2023-06-14T10:42:08;40.0;16.6
78541;SHT31;67835;51.968;5.646;2023-06-14T10:44:45;40.1;16.3
78541;SHT31;67835;51.968;5.646;2023-06-14T10:47:28;40.2;15.8
78541;SHT31;67835;51.968;5.646;2023-06-14T10:50:02;40.3;15.7
78541;SHT31;67835;51.968;5.646;2023-06-14T10:52:33;40.3;15.6
78541;SHT31;67835;51.968;5.646;2023-06-14T10:55:05;40.3;16.8
78541;SHT31;67835;51.968;5.646;2023-06-14T10:57:36;40.3;16.2
78541;SHT31;67835;51.968;5.646;2023-06-14T11:00:07;40.3;17.0
78541;SHT31;67835;51.968;5.646;2023-06-14T11:03:43;40.4;15.5
78541;SHT31;67835;51.968;5.646;2023-06-14T11:06:23;40.5;15.5
78541;SHT31;67835;51.968;5.646;2023-06-14T11:10:28;40.5;15.2
78541;SHT31;67835;51.968;5.646;2023-06-14T11:13:00;40.3;15.5
78541;SHT31;67835;51.968;5.646;2023-06-14T11:15:33;40.2;15.4
78541;SHT31;67835;51.968;5.646;2023-06-14T11:18:03;40.1;15.5
78541;SHT31;67835;51.968;5.646;2023-06-14T11:20:34;40.0;15.4
78541;SHT31;67835;51.968;5.646;2023-06-14T11:23:04;39.8;15.8
78541;SHT31;67835;51.968;5.646;2023-06-14T11:25:32;39.7;16.7
78541;SHT31;67835;51.968;5.646;2023-06-14T11:28:01;39.6;15.8
78541;SHT31;67835;51.968;5.646;2023-06-14T11:30:30;39.5;15.8
78541;SHT31;67835;51.968;5.646;2023-06-14T11:32:58;39.4;15.6
78541;SHT31;67835;51.968;5.646;2023-06-14T11:35:27;39.3;15.6
78541;SHT31;67835;51.968;5.646;2023-06-14T11:37:56;39.1;16.1
78541;SHT31;67835;51.968;5.646;2023-06-14T11:40:27;39.0;15.7
78541;SHT31;67835;51.968;5.646;2023-06-14T11:43:00;38.9;16.1
78541;SHT31;67835;51.968;5.646;2023-06-14T11:45:31;38.7;16.6
78541;SHT31;67835;51.968;5.646;2023-06-14T11:47:59;38.6;16.1
78541;SHT31;67835;51.968;5.646;2023-06-14T11:50:28;38.4;15.9
78541;SHT31;67835;51.968;5.646;2023-06-14T11:52:59;38.2;16.8
78541;SHT31;67835;51.968;5.646;2023-06-14T11:55:35;38.0;16.9
78541;SHT31;67835;51.968;5.646;2023-06-14T11:58:06;37.9;17.1
78541;SHT31;67835;51.968;5.646;2023-06-14T12:00:35;37.8;16.0
78541;SHT31;67835;51.968;5.646;2023-06-14T12:03:07;37.7;16.6
78541;SHT31;67835;51.968;5.646;2023-06-14T12:05:35;37.5;16.9
78541;SHT31;67835;51.968;5.646;2023-06-14T12:08:05;37.3;16.9
78541;SHT31;67835;51.968;5.646;2023-06-14T12:10:42;37.2;17.2
78541;SHT31;67835;51.968;5.646;2023-06-14T12:13:11;37.0;18.1
78541;SHT31;67835;51.968;5.646;2023-06-14T12:15:39;36.9;18.5
78541;SHT31;67835;51.968;5.646;2023-06-14T12:20:53;36.7;18.0
78541;SHT31;67835;51.968;5.646;2023-06-14T12:23:23;36.5;18.2
78541;SHT31;67835;51.968;5.646;2023-06-14T12:25:52;36.3;18.5
78541;SHT31;67835;51.968;5.646;2023-06-14T12:28:21;36.1;18.5
78541;SHT31;67835;51.968;5.646;2023-06-14T12:30:50;35.9;18.7
78541;SHT31;67835;51.968;5.646;2023-06-14T12:33:19;35.8;19.4
78541;SHT31;67835;51.968;5.646;2023-06-14T12:35:47;35.7;19.0
78541;SHT31;67835;51.968;5.646;2023-06-14T12:38:16;35.6;19.3
78541;SHT31;67835;51.968;5.646;2023-06-14T12:40:45;35.5;18.7
78541;SHT31;67835;51.968;5.646;2023-06-14T12:43:14;35.4;19.1
78541;SHT31;67835;51.968;5.646;2023-06-14T12:45:42;35.3;19.3
78541;SHT31;67835;51.968;5.646;2023-06-14T12:48:11;35.2;18.9
78541;SHT31;67835;51.968;5.646;2023-06-14T12:50:40;35.0;19.0
78541;SHT31;67835;51.968;5.646;2023-06-14T12:53:09;34.8;19.0
78541;SHT31;67835;51.968;5.646;2023-06-14T12:55:37;34.7;19.1
78541;SHT31;67835;51.968;5.646;2023-06-14T12:58:08;34.6;19.5
78541;SHT31;67835;51.968;5.646;2023-06-14T13:00:38;34.5;19.0
78541;SHT31;67835;51.968;5.646;2023-06-14T13:03:07;34.5;19.5
78541;SHT31;67835;51.968;5.646;2023-06-14T13:05:37;34.3;19.6
78541;SHT31;67835;51.968;5.646;2023-06-14T13:08:08;34.2;20.1
78541;SHT31;67835;51.968;5.646;2023-06-14T13:10:36;34.2;20.7
78541;SHT31;67835;51.968;5.646;2023-06-14T13:13:05;34.1;20.6
78541;SHT31;67835;51.968;5.646;2023-06-14T13:15:34;34.1;20.6
78541;SHT31;67835;51.968;5.646;2023-06-14T13:18:03;34.0;20.2
78541;SHT31;67835;51.968;5.646;2023-06-14T13:20:32;34.0;20.5
78541;SHT31;67835;51.968;5.646;2023-06-14T13:23:00;34.0;20.0
78541;SHT31;67835;51.968;5.646;2023-06-14T13:25:34;33.9;20.7
78541;SHT31;67835;51.968;5.646;2023-06-14T13:28:04;33.9;20.4
78541;SHT31;67835;51.968;5.646;2023-06-14T13:30:33;33.8;20.7
78541;SHT31;67835;51.968;5.646;2023-06-14T13:33:02;33.8;20.9
78541;SHT31;67835;51.968;5.646;2023-06-14T13:35:31;33.8;21.7
78541;SHT31;67835;51.968;5.646;2023-06-14T13:37:59;33.7;20.8
78541;SHT31;67835;51.968;5.646;2023-06-14T13:40:27;33.7;20.8
78541;SHT31;67835;51.968;5.646;2023-06-14T13:42:56;33.7;21.2
78541;SHT31;67835;51.968;5.646;2023-06-14T13:45:25;33.6;21.6
78541;SHT31;67835;51.968;5.646;2023-06-14T13:47:53;33.6;22.0
78541;SHT31;67835;51.968;5.646;2023-06-14T13:50:21;33.5;21.9
78541;SHT31;67835;51.968;5.646;2023-06-14T13:52:50;33.6;21.5
78541;SHT31;67835;51.968;5.646;2023-06-14T13:55:19;33.6;20.8
78541;SHT31;67835;51.968;5.646;2023-06-14T13:57:49;33.6;22.0
78541;SHT31;67835;51.968;5.646;2023-06-14T14:00:19;33.6;21.4
78541;SHT31;67835;51.968;5.646;2023-06-14T14:02:48;33.6;19.9
78541;SHT31;67835;51.968;5.646;2023-06-14T14:05:17;33.6;20.5
78541;SHT31;67835;51.968;5.646;2023-06-14T14:07:47;33.6;20.8
78541;SHT31;67835;51.968;5.646;2023-06-14T14:10:15;33.6;20.4
78541;SHT31;67835;51.968;5.646;2023-06-14T14:12:46;33.6;20.6
78541;SHT31;67835;51.968;5.646;2023-06-14T14:15:15;33.5;21.5
78541;SHT31;67835;51.968;5.646;2023-06-14T14:17:45;33.5;20.2
78541;SHT31;67835;51.968;5.646;2023-06-14T14:20:14;33.4;20.7
78541;SHT31;67835;51.968;5.646;2023-06-14T14:22:43;33.4;20.5
78541;SHT31;67835;51.968;5.646;2023-06-14T14:25:14;33.3;20.6
78541;SHT31;67835;51.968;5.646;2023-06-14T14:27:44;33.2;20.5
78541;SHT31;67835;51.968;5.646;2023-06-14T14:30:13;33.2;20.6
78541;SHT31;67835;51.968;5.646;2023-06-14T14:32:43;33.1;20.5
78541;SHT31;67835;51.968;5.646;2023-06-14T14:35:16;33.0;21.6
78541;SHT31;67835;51.968;5.646;2023-06-14T14:37:45;32.9;22.3
78541;SHT31;67835;51.968;5.646;2023-06-14T14:40:14;32.9;20.2
78541;SHT31;67835;51.968;5.646;2023-06-14T14:42:42;32.9;20.5
78541;SHT31;67835;51.968;5.646;2023-06-14T14:45:11;32.8;20.4
78541;SHT31;67835;51.968;5.646;2023-06-14T14:47:40;32.8;21.9
78541;SHT31;67835;51.968;5.646;2023-06-14T14:50:09;32.7;21.4
78541;SHT31;67835;51.968;5.646;2023-06-14T14:52:38;32.7;21.2
78541;SHT31;67835;51.968;5.646;2023-06-14T14:55:08;32.7;21.0
78541;SHT31;67835;51.968;5.646;2023-06-14T14:57:37;32.6;21.0
78541;SHT31;67835;51.968;5.646;2023-06-14T15:00:06;32.6;20.9
78541;SHT31;67835;51.968;5.646;2023-06-14T15:02:36;32.6;21.5
78541;SHT31;67835;51.968;5.646;2023-06-14T15:05:07;32.5;21.7
78541;SHT31;67835;51.968;5.646;2023-06-14T15:07:36;32.5;22.1
78541;SHT31;67835;51.968;5.646;2023-06-14T15:10:07;32.6;22.0
78541;SHT31;67835;51.968;5.646;2023-06-14T15:12:38;32.6;21.5
78541;SHT31;67835;51.968;5.646;2023-06-14T16:06:34;32.4;21.7
78541;SHT31;67835;51.968;5.646;2023-06-14T16:09:03;32.1;21.8
78541;SHT31;67835;51.968;5.646;2023-06-14T16:11:32;31.9;22.3
78541;SHT31;67835;51.968;5.646;2023-06-14T16:14:01;31.8;22.1
78541;SHT31;67835;51.968;5.646;2023-06-14T16:16:30;31.7;22.4
78541;SHT31;67835;51.968;5.646;2023-06-14T16:18:58;31.5;22.6
78541;SHT31;67835;51.968;5.646;2023-06-14T16:21:27;31.4;23.0
78541;SHT31;67835;51.968;5.646;2023-06-14T16:23:55;31.3;23.0
78541;SHT31;67835;51.968;5.646;2023-06-14T16:26:24;31.1;23.1
78541;SHT31;67835;51.968;5.646;2023-06-14T16:28:53;31.0;22.7
78541;SHT31;67835;51.968;5.646;2023-06-14T16:31:22;30.9;23.1
78541;SHT31;67835;51.968;5.646;2023-06-14T16:33:51;30.7;23.0
78541;SHT31;67835;51.968;5.646;2023-06-14T16:36:22;30.6;23.7
78541;SHT31;67835;51.968;5.646;2023-06-14T16:38:51;30.5;23.7
78541;SHT31;67835;51.968;5.646;2023-06-14T16:41:22;30.4;23.7
78541;SHT31;67835;51.968;5.646;2023-06-14T16:43:51;30.3;23.7
78541;SHT31;67835;51.968;5.646;2023-06-14T16:46:29;30.2;24.0
78541;SHT31;67835;51.968;5.646;2023-06-14T16:48:58;30.1;24.3
78541;SHT31;67835;51.968;5.646;2023-06-14T16:51:27;30.0;23.9
78541;SHT31;67835;51.968;5.646;2023-06-14T16:53:56;30.0;24.4
78541;SHT31;67835;51.968;5.646;2023-06-14T16:56:24;29.9;24.3
78541;SHT31;67835;51.968;5.646;2023-06-14T16:58:54;29.8;24.7
78541;SHT31;67835;51.968;5.646;2023-06-14T17:01:24;29.7;24.7
78541;SHT31;67835;51.968;5.646;2023-06-14T17:03:54;29.7;25.0
78541;SHT31;67835;51.968;5.646;2023-06-14T17:06:23;29.6;25.3
78541;SHT31;67835;51.968;5.646;2023-06-14T17:08:52;29.5;24.1
78541;SHT31;67835;51.968;5.646;2023-06-14T17:11:21;29.5;23.8
78541;SHT31;67835;51.968;5.646;2023-06-14T17:13:51;29.4;24.6
78541;SHT31;67835;51.968;5.646;2023-06-14T17:16:20;29.4;24.9